Ferry Kyoto2 — JI3701 — position and weather

sailwx.info

Track history (hours):
 
Tides and Currents Weather Stations Pressure Air Temp Water Temp Dewpoint Dewpoint Depression Visibility Wind Speed Wind Dir Waves Ship Positions

Ferry Kyoto2

Last reported at 2014-Dec-22 04:26 UTC. Time now 2014-Dec-22 04:59 UTC.
Position N 34°37' E 135°26'.

Length 167 m; draft 6 m.

Type: Passenger vessel. MMSI: 431301641.

Date/timePositionNaut miles runAvg speedWind from/ knotsBaromVisibWave heightAir tempDewpointWater temp
2014-Dec-22 04:26N 34°37' E 135°26'0 0.0
2014-Dec-22 03:14N 34°37' E 135°26'0 0.0
2014-Dec-22 02:20N 34°37' E 135°26'0 0.0
2014-Dec-22 01:32N 34°37' E 135°26'0 0.0
2014-Dec-22 00:32N 34°37' E 135°26'0 0.0
2014-Dec-21 23:32N 34°37' E 135°26'9 8.9
2014-Dec-21 22:34N 34°35' E 135°16'1918.9
2014-Dec-21 21:32N 34°34' E 134°52'2 0.1
2014-Dec-20 12:33N 34°35' E 134°49'2120.8
2014-Dec-20 11:33N 34°36' E 135°14'10 8.3
2014-Dec-20 10:24N 34°37' E 135°26'0 0.0
2014-Dec-20 09:30N 34°37' E 135°26'0 0.0
2014-Dec-20 08:18N 34°37' E 135°26'0 0.0
2014-Dec-20 07:30N 34°37' E 135°26'0 0.0
2014-Dec-20 06:30N 34°37' E 135°26'0 0.0
2014-Dec-20 05:30N 34°37' E 135°26'0 0.0
2014-Dec-20 04:30N 34°37' E 135°26'0 0.0
2014-Dec-20 03:30N 34°37' E 135°26'0 0.0
2014-Dec-20 02:24N 34°37' E 135°26'0 0.0
2014-Dec-20 01:30N 34°37' E 135°26'0 0.0
2014-Dec-20 00:30N 34°37' E 135°26'0 0.0
2014-Dec-19 23:30N 34°37' E 135°26'1212.1
2014-Dec-19 22:33N 34°35' E 135°12'1818.0
2014-Dec-19 21:33N 34°33' E 134°50'3 0.1
2014-Dec-18 12:33N 34°35' E 134°52'2020.0
2014-Dec-18 11:33N 34°36' E 135°16'8 6.3
2014-Dec-18 10:18N 34°37' E 135°26'0 0.0
2014-Dec-18 09:30N 34°37' E 135°26'0 0.0
2014-Dec-18 08:18N 34°37' E 135°26'0 0.0
2014-Dec-18 07:18N 34°37' E 135°26'0 0.0
2014-Dec-18 06:30N 34°37' E 135°26'0 0.0
2014-Dec-18 05:24N 34°37' E 135°26'0 0.0
2014-Dec-18 04:30N 34°37' E 135°26'0 0.0
2014-Dec-18 03:30N 34°37' E 135°26'0 0.0
2014-Dec-18 02:30N 34°37' E 135°26'0 0.0
2014-Dec-18 01:30N 34°37' E 135°26'0 0.0
2014-Dec-18 00:30N 34°37' E 135°26'0 0.0
2014-Dec-17 23:33N 34°37' E 135°26'1010.5
2014-Dec-17 22:33N 34°35' E 135°13'2020.0
2014-Dec-17 21:33N 34°33' E 134°49'5 0.1
2014-Dec-16 12:33N 34°36' E 134°53'1919.2
2014-Dec-16 11:33N 34°36' E 135°17'8 6.5
2014-Dec-16 10:23N 34°37' E 135°26'0 0.0
2014-Dec-16 09:29N 34°37' E 135°26'0 0.0
2014-Dec-16 08:23N 34°37' E 135°26'0 0.0
2014-Dec-16 07:23N 34°37' E 135°26'0 0.0
2014-Dec-16 06:29N 34°37' E 135°26'0 0.0
2014-Dec-16 05:23N 34°37' E 135°26'0 0.0
2014-Dec-16 04:23N 34°37' E 135°26'0 0.0
2014-Dec-16 03:29N 34°37' E 135°26'0 0.0
2014-Dec-16 01:05N 34°37' E 135°26'0 0.0
2014-Dec-15 23:28N 34°37' E 135°26'1111.7
2014-Dec-15 22:33N 34°35' E 135°13'1818.1
2014-Dec-15 21:33N 34°34' E 134°51'1 0.0
2014-Dec-14 12:32N 34°34' E 134°50'1919.4
2014-Dec-14 11:33N 34°36' E 135°13'10 8.9
2014-Dec-14 10:24N 34°37' E 135°26'0 0.0
2014-Dec-14 09:30N 34°37' E 135°26'0 0.0
2014-Dec-14 08:30N 34°37' E 135°26'0 0.0
2014-Dec-14 07:06N 34°37' E 135°26'0 0.0
2014-Dec-14 06:30N 34°37' E 135°26'0 0.0
2014-Dec-14 05:30N 34°37' E 135°26'0 0.0
2014-Dec-14 04:30N 34°37' E 135°26'0 0.0
2014-Dec-14 03:30N 34°37' E 135°26'0 0.0
2014-Dec-14 02:30N 34°37' E 135°26'0 0.0
2014-Dec-14 01:30N 34°37' E 135°26'0 0.0
2014-Dec-14 00:30N 34°37' E 135°26'0 0.0
2014-Dec-13 23:30N 34°37' E 135°26'9 9.8
2014-Dec-13 22:34N 34°35' E 135°15'1818.2
2014-Dec-13 21:33N 34°34' E 134°53'1 0.0
2014-Dec-12 12:33N 34°35' E 134°52'2020.0
2014-Dec-12 11:33N 34°36' E 135°16'8 7.7
2014-Dec-12 10:32N 34°37' E 135°26'0 0.0
2014-Dec-12 09:26N 34°37' E 135°26'0 0.0
2014-Dec-12 08:32N 34°37' E 135°26'0 0.0
2014-Dec-12 07:32N 34°37' E 135°26'0 0.0
2014-Dec-12 06:26N 34°37' E 135°26'0 0.0
2014-Dec-12 05:32N 34°37' E 135°26'0 0.0
2014-Dec-12 04:32N 34°37' E 135°26'  
Track history (hours):
 
Tides and Currents Weather Stations Pressure Air Temp Water Temp Dewpoint Dewpoint Depression Visibility Wind Speed Wind Dir Waves Ship Positions

Ferry Kyoto2

Last reported at 2014-Dec-22 04:26 UTC. Time now 2014-Dec-22 04:59 UTC.
Position N 34°37' E 135°26'.

Length 167 m; draft 6 m.

Type: Passenger vessel. MMSI: 431301641.

Date/timePositionNaut miles runAvg speedWind from/ knotsBaromVisibWave heightAir tempDewpointWater temp
2014-Dec-22 04:26N 34°37' E 135°26'0 0.0
2014-Dec-22 03:14N 34°37' E 135°26'0 0.0
2014-Dec-22 02:20N 34°37' E 135°26'0 0.0
2014-Dec-22 01:32N 34°37' E 135°26'0 0.0
2014-Dec-22 00:32N 34°37' E 135°26'0 0.0
2014-Dec-21 23:32N 34°37' E 135°26'9 8.9
2014-Dec-21 22:34N 34°35' E 135°16'1918.9
2014-Dec-21 21:32N 34°34' E 134°52'2 0.1
2014-Dec-20 12:33N 34°35' E 134°49'2120.8
2014-Dec-20 11:33N 34°36' E 135°14'10 8.3
2014-Dec-20 10:24N 34°37' E 135°26'0 0.0
2014-Dec-20 09:30N 34°37' E 135°26'0 0.0
2014-Dec-20 08:18N 34°37' E 135°26'0 0.0
2014-Dec-20 07:30N 34°37' E 135°26'0 0.0
2014-Dec-20 06:30N 34°37' E 135°26'0 0.0
2014-Dec-20 05:30N 34°37' E 135°26'0 0.0
2014-Dec-20 04:30N 34°37' E 135°26'0 0.0
2014-Dec-20 03:30N 34°37' E 135°26'0 0.0
2014-Dec-20 02:24N 34°37' E 135°26'0 0.0
2014-Dec-20 01:30N 34°37' E 135°26'0 0.0
2014-Dec-20 00:30N 34°37' E 135°26'0 0.0
2014-Dec-19 23:30N 34°37' E 135°26'1212.1
2014-Dec-19 22:33N 34°35' E 135°12'1818.0
2014-Dec-19 21:33N 34°33' E 134°50'3 0.1
2014-Dec-18 12:33N 34°35' E 134°52'2020.0
2014-Dec-18 11:33N 34°36' E 135°16'8 6.3
2014-Dec-18 10:18N 34°37' E 135°26'0 0.0
2014-Dec-18 09:30N 34°37' E 135°26'0 0.0
2014-Dec-18 08:18N 34°37' E 135°26'0 0.0
2014-Dec-18 07:18N 34°37' E 135°26'0 0.0
2014-Dec-18 06:30N 34°37' E 135°26'0 0.0
2014-Dec-18 05:24N 34°37' E 135°26'0 0.0
2014-Dec-18 04:30N 34°37' E 135°26'0 0.0
2014-Dec-18 03:30N 34°37' E 135°26'0 0.0
2014-Dec-18 02:30N 34°37' E 135°26'0 0.0
2014-Dec-18 01:30N 34°37' E 135°26'0 0.0
2014-Dec-18 00:30N 34°37' E 135°26'0 0.0
2014-Dec-17 23:33N 34°37' E 135°26'1010.5
2014-Dec-17 22:33N 34°35' E 135°13'2020.0
2014-Dec-17 21:33N 34°33' E 134°49'5 0.1
2014-Dec-16 12:33N 34°36' E 134°53'1919.2
2014-Dec-16 11:33N 34°36' E 135°17'8 6.5
2014-Dec-16 10:23N 34°37' E 135°26'0 0.0
2014-Dec-16 09:29N 34°37' E 135°26'0 0.0
2014-Dec-16 08:23N 34°37' E 135°26'0 0.0
2014-Dec-16 07:23N 34°37' E 135°26'0 0.0
2014-Dec-16 06:29N 34°37' E 135°26'0 0.0
2014-Dec-16 05:23N 34°37' E 135°26'0 0.0
2014-Dec-16 04:23N 34°37' E 135°26'0 0.0
2014-Dec-16 03:29N 34°37' E 135°26'0 0.0
2014-Dec-16 01:05N 34°37' E 135°26'0 0.0
2014-Dec-15 23:28N 34°37' E 135°26'1111.7
2014-Dec-15 22:33N 34°35' E 135°13'1818.1
2014-Dec-15 21:33N 34°34' E 134°51'1 0.0
2014-Dec-14 12:32N 34°34' E 134°50'1919.4
2014-Dec-14 11:33N 34°36' E 135°13'10 8.9
2014-Dec-14 10:24N 34°37' E 135°26'0 0.0
2014-Dec-14 09:30N 34°37' E 135°26'0 0.0
2014-Dec-14 08:30N 34°37' E 135°26'0 0.0
2014-Dec-14 07:06N 34°37' E 135°26'0 0.0
2014-Dec-14 06:30N 34°37' E 135°26'0 0.0
2014-Dec-14 05:30N 34°37' E 135°26'0 0.0
2014-Dec-14 04:30N 34°37' E 135°26'0 0.0
2014-Dec-14 03:30N 34°37' E 135°26'0 0.0
2014-Dec-14 02:30N 34°37' E 135°26'0 0.0
2014-Dec-14 01:30N 34°37' E 135°26'0 0.0
2014-Dec-14 00:30N 34°37' E 135°26'0 0.0
2014-Dec-13 23:30N 34°37' E 135°26'9 9.8
2014-Dec-13 22:34N 34°35' E 135°15'1818.2
2014-Dec-13 21:33N 34°34' E 134°53'1 0.0
2014-Dec-12 12:33N 34°35' E 134°52'2020.0
2014-Dec-12 11:33N 34°36' E 135°16'8 7.7
2014-Dec-12 10:32N 34°37' E 135°26'0 0.0
2014-Dec-12 09:26N 34°37' E 135°26'0 0.0
2014-Dec-12 08:32N 34°37' E 135°26'0 0.0
2014-Dec-12 07:32N 34°37' E 135°26'0 0.0
2014-Dec-12 06:26N 34°37' E 135°26'0 0.0
2014-Dec-12 05:32N 34°37' E 135°26'0 0.0
2014-Dec-12 04:32N 34°37' E 135°26'  

Dump ship's entire track history